sensor_id;sensor_type;location;lat;lon;timestamp;P1;durP1;ratioP1;P2;durP2;ratioP2
26512;SDS011;14186;53.822;10.152;2024-01-10T00:02:42;18.85;;;6.45;;
26512;SDS011;14186;53.822;10.152;2024-01-10T00:07:43;18.25;;;6.35;;
26512;SDS011;14186;53.822;10.152;2024-01-10T00:12:43;17.75;;;6.57;;
26512;SDS011;14186;53.822;10.152;2024-01-10T00:17:44;22.67;;;6.75;;
26512;SDS011;14186;53.822;10.152;2024-01-10T00:22:45;15.85;;;6.95;;
26512;SDS011;14186;53.822;10.152;2024-01-10T00:27:45;18.33;;;6.65;;
26512;SDS011;14186;53.822;10.152;2024-01-10T00:32:46;20.45;;;6.55;;
26512;SDS011;14186;53.822;10.152;2024-01-10T00:37:47;19.45;;;6.60;;
26512;SDS011;14186;53.822;10.152;2024-01-10T00:42:47;16.40;;;5.85;;
26512;SDS011;14186;53.822;10.152;2024-01-10T00:47:48;14.95;;;6.03;;
26512;SDS011;14186;53.822;10.152;2024-01-10T00:52:49;23.23;;;6.47;;
26512;SDS011;14186;53.822;10.152;2024-01-10T00:57:49;17.45;;;5.38;;
26512;SDS011;14186;53.822;10.152;2024-01-10T01:02:50;16.60;;;5.47;;
26512;SDS011;14186;53.822;10.152;2024-01-10T01:07:51;13.82;;;5.35;;
26512;SDS011;14186;53.822;10.152;2024-01-10T01:12:51;18.95;;;5.93;;
26512;SDS011;14186;53.822;10.152;2024-01-10T01:17:51;17.73;;;4.82;;
26512;SDS011;14186;53.822;10.152;2024-01-10T01:22:53;17.40;;;6.25;;
26512;SDS011;14186;53.822;10.152;2024-01-10T01:27:53;16.42;;;5.28;;
26512;SDS011;14186;53.822;10.152;2024-01-10T01:32:53;14.00;;;5.10;;
26512;SDS011;14186;53.822;10.152;2024-01-10T01:37:55;20.77;;;6.40;;
26512;SDS011;14186;53.822;10.152;2024-01-10T01:42:55;23.70;;;7.95;;
26512;SDS011;14186;53.822;10.152;2024-01-10T01:47:55;19.30;;;7.10;;
26512;SDS011;14186;53.822;10.152;2024-01-10T01:52:57;21.77;;;7.88;;
26512;SDS011;14186;53.822;10.152;2024-01-10T01:57:57;29.35;;;8.50;;
26512;SDS011;14186;53.822;10.152;2024-01-10T02:02:58;30.70;;;8.27;;
26512;SDS011;14186;53.822;10.152;2024-01-10T02:07:59;27.58;;;8.15;;
26512;SDS011;14186;53.822;10.152;2024-01-10T02:13:00;21.10;;;7.85;;
26512;SDS011;14186;53.822;10.152;2024-01-10T02:18:00;22.35;;;8.40;;
26512;SDS011;14186;53.822;10.152;2024-01-10T02:23:01;27.00;;;8.48;;
26512;SDS011;14186;53.822;10.152;2024-01-10T02:28:03;14.45;;;5.55;;
26512;SDS011;14186;53.822;10.152;2024-01-10T02:33:04;14.57;;;5.40;;
26512;SDS011;14186;53.822;10.152;2024-01-10T02:38:04;12.93;;;4.95;;
26512;SDS011;14186;53.822;10.152;2024-01-10T02:43:05;15.55;;;5.18;;
26512;SDS011;14186;53.822;10.152;2024-01-10T02:48:06;15.43;;;4.90;;
26512;SDS011;14186;53.822;10.152;2024-01-10T02:53:06;11.48;;;4.55;;
26512;SDS011;14186;53.822;10.152;2024-01-10T02:58:07;15.82;;;5.18;;
26512;SDS011;14186;53.822;10.152;2024-01-10T03:03:08;16.65;;;4.88;;
26512;SDS011;14186;53.822;10.152;2024-01-10T03:08:08;18.33;;;5.30;;
26512;SDS011;14186;53.822;10.152;2024-01-10T03:13:09;19.00;;;5.07;;
26512;SDS011;14186;53.822;10.152;2024-01-10T03:18:10;12.60;;;4.43;;
26512;SDS011;14186;53.822;10.152;2024-01-10T03:23:10;16.85;;;5.13;;
26512;SDS011;14186;53.822;10.152;2024-01-10T03:28:11;22.15;;;6.05;;
26512;SDS011;14186;53.822;10.152;2024-01-10T03:33:15;23.88;;;6.05;;
26512;SDS011;14186;53.822;10.152;2024-01-10T03:38:15;22.20;;;6.80;;
26512;SDS011;14186;53.822;10.152;2024-01-10T03:43:16;22.70;;;6.57;;
26512;SDS011;14186;53.822;10.152;2024-01-10T03:48:17;25.83;;;7.90;;
26512;SDS011;14186;53.822;10.152;2024-01-10T03:53:17;23.83;;;7.60;;
26512;SDS011;14186;53.822;10.152;2024-01-10T03:58:18;27.25;;;7.10;;
26512;SDS011;14186;53.822;10.152;2024-01-10T04:03:19;21.77;;;7.38;;
26512;SDS011;14186;53.822;10.152;2024-01-10T04:08:19;18.95;;;5.70;;
26512;SDS011;14186;53.822;10.152;2024-01-10T04:13:20;23.42;;;7.03;;
26512;SDS011;14186;53.822;10.152;2024-01-10T04:18:20;19.52;;;7.28;;
26512;SDS011;14186;53.822;10.152;2024-01-10T04:23:21;14.85;;;6.05;;
26512;SDS011;14186;53.822;10.152;2024-01-10T04:28:22;17.17;;;5.93;;
26512;SDS011;14186;53.822;10.152;2024-01-10T04:33:22;26.13;;;8.23;;
26512;SDS011;14186;53.822;10.152;2024-01-10T04:38:23;25.45;;;7.95;;
26512;SDS011;14186;53.822;10.152;2024-01-10T04:43:24;26.08;;;8.13;;
26512;SDS011;14186;53.822;10.152;2024-01-10T04:48:24;25.42;;;7.53;;
26512;SDS011;14186;53.822;10.152;2024-01-10T04:53:24;19.88;;;6.13;;
26512;SDS011;14186;53.822;10.152;2024-01-10T04:58:26;21.52;;;6.07;;
26512;SDS011;14186;53.822;10.152;2024-01-10T05:03:26;21.05;;;7.03;;
26512;SDS011;14186;53.822;10.152;2024-01-10T05:08:26;23.55;;;7.63;;
26512;SDS011;14186;53.822;10.152;2024-01-10T05:13:28;22.92;;;7.50;;
26512;SDS011;14186;53.822;10.152;2024-01-10T05:18:28;27.80;;;7.75;;
26512;SDS011;14186;53.822;10.152;2024-01-10T05:23:29;28.48;;;9.15;;
26512;SDS011;14186;53.822;10.152;2024-01-10T05:28:30;17.35;;;7.15;;
26512;SDS011;14186;53.822;10.152;2024-01-10T05:33:30;30.33;;;8.85;;
26512;SDS011;14186;53.822;10.152;2024-01-10T05:38:31;26.70;;;8.90;;
26512;SDS011;14186;53.822;10.152;2024-01-10T05:43:32;35.47;;;9.50;;
26512;SDS011;14186;53.822;10.152;2024-01-10T05:48:32;28.75;;;8.80;;
26512;SDS011;14186;53.822;10.152;2024-01-10T05:53:33;28.50;;;9.18;;
26512;SDS011;14186;53.822;10.152;2024-01-10T05:58:34;26.33;;;8.20;;
26512;SDS011;14186;53.822;10.152;2024-01-10T06:03:34;43.08;;;11.82;;
26512;SDS011;14186;53.822;10.152;2024-01-10T06:08:34;29.83;;;8.65;;
26512;SDS011;14186;53.822;10.152;2024-01-10T06:13:36;27.98;;;9.38;;
26512;SDS011;14186;53.822;10.152;2024-01-10T06:18:36;27.50;;;7.82;;
26512;SDS011;14186;53.822;10.152;2024-01-10T06:23:37;34.88;;;9.15;;
26512;SDS011;14186;53.822;10.152;2024-01-10T06:28:39;23.73;;;8.23;;
26512;SDS011;14186;53.822;10.152;2024-01-10T06:33:39;29.25;;;9.65;;
26512;SDS011;14186;53.822;10.152;2024-01-10T06:38:40;26.15;;;8.70;;
26512;SDS011;14186;53.822;10.152;2024-01-10T06:43:41;36.50;;;11.73;;
26512;SDS011;14186;53.822;10.152;2024-01-10T06:48:41;38.50;;;12.00;;
26512;SDS011;14186;53.822;10.152;2024-01-10T06:53:41;29.33;;;9.60;;
26512;SDS011;14186;53.822;10.152;2024-01-10T06:58:43;27.17;;;9.10;;
26512;SDS011;14186;53.822;10.152;2024-01-10T07:03:43;23.02;;;9.55;;
26512;SDS011;14186;53.822;10.152;2024-01-10T07:08:43;31.67;;;9.25;;
26512;SDS011;14186;53.822;10.152;2024-01-10T07:13:45;33.20;;;11.93;;
26512;SDS011;14186;53.822;10.152;2024-01-10T07:18:45;28.75;;;11.27;;
26512;SDS011;14186;53.822;10.152;2024-01-10T07:23:45;31.48;;;9.68;;
26512;SDS011;14186;53.822;10.152;2024-01-10T07:28:47;31.25;;;12.55;;
26512;SDS011;14186;53.822;10.152;2024-01-10T07:33:47;29.10;;;11.40;;
26512;SDS011;14186;53.822;10.152;2024-01-10T07:38:47;30.60;;;11.68;;
26512;SDS011;14186;53.822;10.152;2024-01-10T07:43:49;31.23;;;11.80;;
26512;SDS011;14186;53.822;10.152;2024-01-10T07:48:49;29.30;;;11.35;;
26512;SDS011;14186;53.822;10.152;2024-01-10T07:53:49;32.28;;;12.07;;
26512;SDS011;14186;53.822;10.152;2024-01-10T07:58:51;32.47;;;11.02;;
26512;SDS011;14186;53.822;10.152;2024-01-10T08:03:51;27.58;;;10.95;;
26512;SDS011;14186;53.822;10.152;2024-01-10T08:08:51;28.23;;;9.85;;
26512;SDS011;14186;53.822;10.152;2024-01-10T08:13:53;30.95;;;11.48;;
26512;SDS011;14186;53.822;10.152;2024-01-10T08:18:53;25.13;;;11.40;;
26512;SDS011;14186;53.822;10.152;2024-01-10T08:23:53;29.25;;;10.93;;
26512;SDS011;14186;53.822;10.152;2024-01-10T08:28:55;32.67;;;12.65;;
26512;SDS011;14186;53.822;10.152;2024-01-10T08:33:55;24.88;;;10.60;;
26512;SDS011;14186;53.822;10.152;2024-01-10T08:38:55;30.40;;;10.43;;
26512;SDS011;14186;53.822;10.152;2024-01-10T08:43:56;33.15;;;11.65;;
26512;SDS011;14186;53.822;10.152;2024-01-10T08:48:57;24.98;;;9.93;;
26512;SDS011;14186;53.822;10.152;2024-01-10T08:53:57;26.90;;;10.27;;
26512;SDS011;14186;53.822;10.152;2024-01-10T08:58:58;24.70;;;9.48;;
26512;SDS011;14186;53.822;10.152;2024-01-10T09:03:59;25.23;;;10.02;;
26512;SDS011;14186;53.822;10.152;2024-01-10T09:08:59;29.35;;;10.30;;
26512;SDS011;14186;53.822;10.152;2024-01-10T09:14:00;30.23;;;11.60;;
26512;SDS011;14186;53.822;10.152;2024-01-10T09:19:01;32.03;;;13.20;;
26512;SDS011;14186;53.822;10.152;2024-01-10T09:24:01;32.83;;;10.80;;
26512;SDS011;14186;53.822;10.152;2024-01-10T09:29:03;32.80;;;13.10;;
26512;SDS011;14186;53.822;10.152;2024-01-10T09:34:03;22.42;;;9.55;;
26512;SDS011;14186;53.822;10.152;2024-01-10T09:39:03;30.00;;;11.32;;
26512;SDS011;14186;53.822;10.152;2024-01-10T09:44:05;24.63;;;10.77;;
26512;SDS011;14186;53.822;10.152;2024-01-10T09:49:05;26.42;;;10.18;;
26512;SDS011;14186;53.822;10.152;2024-01-10T09:54:05;22.70;;;9.00;;
26512;SDS011;14186;53.822;10.152;2024-01-10T09:59:07;17.45;;;8.35;;
26512;SDS011;14186;53.822;10.152;2024-01-10T10:04:07;21.08;;;7.35;;
26512;SDS011;14186;53.822;10.152;2024-01-10T10:09:09;19.00;;;7.15;;
26512;SDS011;14186;53.822;10.152;2024-01-10T10:14:15;10.90;;;4.47;;
26512;SDS011;14186;53.822;10.152;2024-01-10T10:19:22;9.68;;;4.15;;
26512;SDS011;14186;53.822;10.152;2024-01-10T10:24:22;12.38;;;4.47;;
26512;SDS011;14186;53.822;10.152;2024-01-10T10:29:25;10.45;;;5.40;;
26512;SDS011;14186;53.822;10.152;2024-01-10T10:34:30;11.50;;;5.03;;
26512;SDS011;14186;53.822;10.152;2024-01-10T10:44:31;12.80;;;4.78;;
26512;SDS011;14186;53.822;10.152;2024-01-10T10:49:35;16.25;;;5.50;;
26512;SDS011;14186;53.822;10.152;2024-01-10T10:54:35;12.95;;;5.45;;
26512;SDS011;14186;53.822;10.152;2024-01-10T10:59:37;13.00;;;5.75;;
26512;SDS011;14186;53.822;10.152;2024-01-10T11:04:38;16.38;;;6.82;;
26512;SDS011;14186;53.822;10.152;2024-01-10T11:09:39;15.23;;;5.88;;
26512;SDS011;14186;53.822;10.152;2024-01-10T11:20:13;12.65;;;4.60;;
26512;SDS011;14186;53.822;10.152;2024-01-10T11:25:13;12.48;;;5.25;;
26512;SDS011;14186;53.822;10.152;2024-01-10T11:30:16;10.07;;;4.53;;
26512;SDS011;14186;53.822;10.152;2024-01-10T11:45:56;12.25;;;5.75;;
26512;SDS011;14186;53.822;10.152;2024-01-10T11:50:56;12.30;;;6.15;;
26512;SDS011;14186;53.822;10.152;2024-01-10T11:55:57;12.18;;;4.90;;
26512;SDS011;14186;53.822;10.152;2024-01-10T12:00:58;11.23;;;5.38;;
26512;SDS011;14186;53.822;10.152;2024-01-10T12:05:59;10.15;;;5.10;;
26512;SDS011;14186;53.822;10.152;2024-01-10T12:10:59;14.07;;;6.00;;
26512;SDS011;14186;53.822;10.152;2024-01-10T12:16:01;12.10;;;5.45;;
26512;SDS011;14186;53.822;10.152;2024-01-10T12:21:01;14.95;;;5.55;;
26512;SDS011;14186;53.822;10.152;2024-01-10T12:26:01;14.60;;;6.10;;
26512;SDS011;14186;53.822;10.152;2024-01-10T12:31:04;11.57;;;5.63;;
26512;SDS011;14186;53.822;10.152;2024-01-10T12:36:06;11.93;;;5.20;;
26512;SDS011;14186;53.822;10.152;2024-01-10T12:41:06;13.30;;;6.30;;
26512;SDS011;14186;53.822;10.152;2024-01-10T12:46:08;16.52;;;5.90;;
26512;SDS011;14186;53.822;10.152;2024-01-10T12:51:09;16.80;;;7.35;;
26512;SDS011;14186;53.822;10.152;2024-01-10T12:56:10;13.93;;;7.53;;
26512;SDS011;14186;53.822;10.152;2024-01-10T13:01:11;13.15;;;6.20;;
26512;SDS011;14186;53.822;10.152;2024-01-10T13:06:11;14.23;;;6.38;;
26512;SDS011;14186;53.822;10.152;2024-01-10T13:11:12;14.02;;;6.32;;
26512;SDS011;14186;53.822;10.152;2024-01-10T13:16:13;13.17;;;5.60;;
26512;SDS011;14186;53.822;10.152;2024-01-10T13:21:13;14.45;;;6.55;;
26512;SDS011;14186;53.822;10.152;2024-01-10T13:26:14;14.70;;;7.10;;
26512;SDS011;14186;53.822;10.152;2024-01-10T13:31:15;14.57;;;7.78;;
26512;SDS011;14186;53.822;10.152;2024-01-10T13:36:16;21.00;;;8.85;;
26512;SDS011;14186;53.822;10.152;2024-01-10T13:41:16;13.27;;;7.18;;
26512;SDS011;14186;53.822;10.152;2024-01-10T13:46:17;14.07;;;6.10;;
26512;SDS011;14186;53.822;10.152;2024-01-10T13:51:18;22.98;;;10.02;;
26512;SDS011;14186;53.822;10.152;2024-01-10T13:56:18;17.05;;;8.43;;
26512;SDS011;14186;53.822;10.152;2024-01-10T14:01:19;15.65;;;7.57;;
26512;SDS011;14186;53.822;10.152;2024-01-10T14:06:20;15.93;;;7.55;;
26512;SDS011;14186;53.822;10.152;2024-01-10T14:11:20;15.32;;;7.63;;
26512;SDS011;14186;53.822;10.152;2024-01-10T14:16:21;16.25;;;7.82;;
26512;SDS011;14186;53.822;10.152;2024-01-10T14:21:21;16.20;;;8.02;;
26512;SDS011;14186;53.822;10.152;2024-01-10T14:26:22;21.45;;;9.27;;
26512;SDS011;14186;53.822;10.152;2024-01-10T14:31:23;19.15;;;8.82;;
26512;SDS011;14186;53.822;10.152;2024-01-10T14:36:23;19.38;;;8.70;;
26512;SDS011;14186;53.822;10.152;2024-01-10T14:41:24;19.98;;;9.75;;
26512;SDS011;14186;53.822;10.152;2024-01-10T14:46:25;17.92;;;7.45;;
26512;SDS011;14186;53.822;10.152;2024-01-10T14:51:25;17.48;;;7.47;;
26512;SDS011;14186;53.822;10.152;2024-01-10T14:56:26;16.15;;;7.15;;
26512;SDS011;14186;53.822;10.152;2024-01-10T15:01:27;20.13;;;8.35;;
26512;SDS011;14186;53.822;10.152;2024-01-10T15:06:27;14.15;;;5.93;;
26512;SDS011;14186;53.822;10.152;2024-01-10T15:11:27;22.88;;;10.55;;
26512;SDS011;14186;53.822;10.152;2024-01-10T15:16:29;18.80;;;8.05;;
26512;SDS011;14186;53.822;10.152;2024-01-10T15:21:29;23.00;;;11.27;;
26512;SDS011;14186;53.822;10.152;2024-01-10T15:26:29;16.67;;;8.10;;
26512;SDS011;14186;53.822;10.152;2024-01-10T15:31:31;18.95;;;7.57;;
26512;SDS011;14186;53.822;10.152;2024-01-10T15:36:31;18.13;;;7.82;;
26512;SDS011;14186;53.822;10.152;2024-01-10T15:41:31;13.40;;;6.90;;
26512;SDS011;14186;53.822;10.152;2024-01-10T15:46:33;15.30;;;7.18;;
26512;SDS011;14186;53.822;10.152;2024-01-10T15:51:33;21.75;;;8.50;;
26512;SDS011;14186;53.822;10.152;2024-01-10T15:56:33;15.63;;;6.25;;
26512;SDS011;14186;53.822;10.152;2024-01-10T16:01:35;16.90;;;7.72;;
26512;SDS011;14186;53.822;10.152;2024-01-10T16:06:35;14.48;;;6.60;;
26512;SDS011;14186;53.822;10.152;2024-01-10T16:11:39;17.93;;;7.57;;
26512;SDS011;14186;53.822;10.152;2024-01-10T16:16:40;13.50;;;5.90;;
26512;SDS011;14186;53.822;10.152;2024-01-10T16:21:41;17.70;;;6.55;;
26512;SDS011;14186;53.822;10.152;2024-01-10T16:26:41;15.10;;;7.13;;
26512;SDS011;14186;53.822;10.152;2024-01-10T16:31:42;16.30;;;7.18;;
26512;SDS011;14186;53.822;10.152;2024-01-10T16:36:43;17.27;;;6.53;;
26512;SDS011;14186;53.822;10.152;2024-01-10T16:41:43;22.95;;;11.10;;
26512;SDS011;14186;53.822;10.152;2024-01-10T16:46:44;26.70;;;11.93;;
26512;SDS011;14186;53.822;10.152;2024-01-10T16:51:44;20.52;;;8.77;;
26512;SDS011;14186;53.822;10.152;2024-01-10T16:56:45;45.40;;;18.65;;
26512;SDS011;14186;53.822;10.152;2024-01-10T17:01:46;33.72;;;15.45;;
26512;SDS011;14186;53.822;10.152;2024-01-10T17:06:46;20.08;;;9.32;;
26512;SDS011;14186;53.822;10.152;2024-01-10T17:11:47;12.90;;;6.90;;
26512;SDS011;14186;53.822;10.152;2024-01-10T17:16:48;14.45;;;6.35;;
26512;SDS011;14186;53.822;10.152;2024-01-10T17:21:48;27.10;;;10.80;;
26512;SDS011;14186;53.822;10.152;2024-01-10T17:26:49;17.02;;;6.90;;
26512;SDS011;14186;53.822;10.152;2024-01-10T17:31:51;25.88;;;9.75;;
26512;SDS011;14186;53.822;10.152;2024-01-10T17:36:51;18.65;;;8.40;;
26512;SDS011;14186;53.822;10.152;2024-01-10T17:41:51;18.75;;;7.50;;
26512;SDS011;14186;53.822;10.152;2024-01-10T17:46:53;18.20;;;8.32;;
26512;SDS011;14186;53.822;10.152;2024-01-10T17:51:53;17.13;;;8.65;;
26512;SDS011;14186;53.822;10.152;2024-01-10T17:56:53;11.70;;;5.90;;
26512;SDS011;14186;53.822;10.152;2024-01-10T18:01:55;16.33;;;7.93;;
26512;SDS011;14186;53.822;10.152;2024-01-10T18:06:55;18.02;;;9.07;;
26512;SDS011;14186;53.822;10.152;2024-01-10T18:11:55;22.05;;;9.13;;
26512;SDS011;14186;53.822;10.152;2024-01-10T18:16:57;18.90;;;8.00;;
26512;SDS011;14186;53.822;10.152;2024-01-10T18:21:57;20.63;;;8.65;;
26512;SDS011;14186;53.822;10.152;2024-01-10T18:26:57;18.70;;;8.40;;
26512;SDS011;14186;53.822;10.152;2024-01-10T18:31:59;17.20;;;8.88;;
26512;SDS011;14186;53.822;10.152;2024-01-10T18:36:59;14.73;;;7.28;;
26512;SDS011;14186;53.822;10.152;2024-01-10T18:41:59;19.42;;;8.38;;
26512;SDS011;14186;53.822;10.152;2024-01-10T18:47:01;15.65;;;7.95;;
26512;SDS011;14186;53.822;10.152;2024-01-10T18:52:01;22.38;;;8.93;;
26512;SDS011;14186;53.822;10.152;2024-01-10T18:57:01;20.88;;;10.68;;
26512;SDS011;14186;53.822;10.152;2024-01-10T19:02:03;16.35;;;7.00;;
26512;SDS011;14186;53.822;10.152;2024-01-10T19:07:03;15.02;;;7.13;;
26512;SDS011;14186;53.822;10.152;2024-01-10T19:12:04;17.73;;;9.23;;
26512;SDS011;14186;53.822;10.152;2024-01-10T19:17:05;18.15;;;7.50;;
26512;SDS011;14186;53.822;10.152;2024-01-10T19:22:06;14.52;;;7.35;;
26512;SDS011;14186;53.822;10.152;2024-01-10T19:27:06;14.80;;;6.40;;
26512;SDS011;14186;53.822;10.152;2024-01-10T19:32:08;14.70;;;6.97;;
26512;SDS011;14186;53.822;10.152;2024-01-10T19:37:08;18.50;;;8.10;;
26512;SDS011;14186;53.822;10.152;2024-01-10T19:42:08;16.83;;;7.40;;
26512;SDS011;14186;53.822;10.152;2024-01-10T19:47:10;14.82;;;6.72;;
26512;SDS011;14186;53.822;10.152;2024-01-10T19:52:10;14.48;;;6.93;;
26512;SDS011;14186;53.822;10.152;2024-01-10T19:57:10;15.15;;;6.75;;
26512;SDS011;14186;53.822;10.152;2024-01-10T20:02:12;18.20;;;7.32;;
26512;SDS011;14186;53.822;10.152;2024-01-10T20:07:12;17.58;;;7.80;;
26512;SDS011;14186;53.822;10.152;2024-01-10T20:12:12;18.60;;;8.35;;
26512;SDS011;14186;53.822;10.152;2024-01-10T20:17:14;14.73;;;6.75;;
26512;SDS011;14186;53.822;10.152;2024-01-10T20:22:14;20.40;;;8.57;;
26512;SDS011;14186;53.822;10.152;2024-01-10T20:27:14;25.60;;;10.80;;
26512;SDS011;14186;53.822;10.152;2024-01-10T20:32:16;25.42;;;9.93;;
26512;SDS011;14186;53.822;10.152;2024-01-10T20:37:16;18.17;;;8.27;;
26512;SDS011;14186;53.822;10.152;2024-01-10T20:42:16;17.58;;;7.88;;
26512;SDS011;14186;53.822;10.152;2024-01-10T20:47:18;25.00;;;9.13;;
26512;SDS011;14186;53.822;10.152;2024-01-10T20:52:18;20.17;;;7.88;;
26512;SDS011;14186;53.822;10.152;2024-01-10T20:57:18;15.32;;;7.43;;
26512;SDS011;14186;53.822;10.152;2024-01-10T21:02:20;15.68;;;7.95;;
26512;SDS011;14186;53.822;10.152;2024-01-10T21:07:20;15.68;;;7.38;;
26512;SDS011;14186;53.822;10.152;2024-01-10T21:12:20;15.95;;;7.32;;
26512;SDS011;14186;53.822;10.152;2024-01-10T21:17:22;17.85;;;7.93;;
26512;SDS011;14186;53.822;10.152;2024-01-10T21:22:22;19.05;;;9.13;;
26512;SDS011;14186;53.822;10.152;2024-01-10T21:27:22;17.13;;;8.38;;
26512;SDS011;14186;53.822;10.152;2024-01-10T21:32:24;17.70;;;7.35;;
26512;SDS011;14186;53.822;10.152;2024-01-10T21:37:24;16.55;;;8.25;;
26512;SDS011;14186;53.822;10.152;2024-01-10T21:42:24;23.45;;;9.45;;
26512;SDS011;14186;53.822;10.152;2024-01-10T21:47:26;19.45;;;8.52;;
26512;SDS011;14186;53.822;10.152;2024-01-10T21:52:26;19.75;;;7.63;;
26512;SDS011;14186;53.822;10.152;2024-01-10T21:57:26;23.80;;;8.80;;
26512;SDS011;14186;53.822;10.152;2024-01-10T22:02:28;18.77;;;8.07;;
26512;SDS011;14186;53.822;10.152;2024-01-10T22:07:28;19.45;;;7.55;;
26512;SDS011;14186;53.822;10.152;2024-01-10T22:12:28;18.42;;;8.18;;
26512;SDS011;14186;53.822;10.152;2024-01-10T22:17:30;16.52;;;7.57;;
26512;SDS011;14186;53.822;10.152;2024-01-10T22:22:30;19.45;;;7.93;;
26512;SDS011;14186;53.822;10.152;2024-01-10T22:27:30;20.45;;;8.60;;
26512;SDS011;14186;53.822;10.152;2024-01-10T22:32:32;14.52;;;6.15;;
26512;SDS011;14186;53.822;10.152;2024-01-10T22:37:32;20.10;;;8.50;;
26512;SDS011;14186;53.822;10.152;2024-01-10T22:42:32;22.83;;;8.85;;
26512;SDS011;14186;53.822;10.152;2024-01-10T22:47:34;16.30;;;7.47;;
26512;SDS011;14186;53.822;10.152;2024-01-10T22:52:34;21.70;;;8.52;;
26512;SDS011;14186;53.822;10.152;2024-01-10T22:57:34;19.75;;;9.45;;
26512;SDS011;14186;53.822;10.152;2024-01-10T23:02:36;24.85;;;9.25;;
26512;SDS011;14186;53.822;10.152;2024-01-10T23:07:36;28.58;;;10.30;;
26512;SDS011;14186;53.822;10.152;2024-01-10T23:12:36;22.27;;;10.00;;
26512;SDS011;14186;53.822;10.152;2024-01-10T23:17:38;26.48;;;11.32;;
26512;SDS011;14186;53.822;10.152;2024-01-10T23:22:38;28.90;;;12.30;;
26512;SDS011;14186;53.822;10.152;2024-01-10T23:27:38;29.23;;;11.27;;
26512;SDS011;14186;53.822;10.152;2024-01-10T23:32:40;25.48;;;11.73;;
26512;SDS011;14186;53.822;10.152;2024-01-10T23:37:40;29.25;;;11.57;;
26512;SDS011;14186;53.822;10.152;2024-01-10T23:42:40;25.15;;;10.30;;
26512;SDS011;14186;53.822;10.152;2024-01-10T23:47:42;25.13;;;11.27;;
26512;SDS011;14186;53.822;10.152;2024-01-10T23:52:42;29.23;;;11.50;;
26512;SDS011;14186;53.822;10.152;2024-01-10T23:57:42;21.45;;;8.77;;
